createdAt,value
2023-03-24T00:01:56.113Z,99.90
2023-03-24T00:04:24.801Z,99.90
2023-03-24T00:06:52.247Z,99.90
2023-03-24T00:09:18.921Z,99.90
2023-03-24T00:11:45.541Z,99.90
2023-03-24T00:14:12.531Z,99.90
2023-03-24T00:16:43.082Z,99.90
2023-03-24T00:19:13.096Z,99.90
2023-03-24T00:21:39.855Z,99.90
2023-03-24T00:24:09.430Z,99.90
2023-03-24T00:26:38.091Z,99.90
2023-03-24T00:29:07.007Z,99.90
2023-03-24T00:31:33.782Z,99.90
2023-03-24T00:34:02.780Z,99.90
2023-03-24T00:36:29.485Z,99.90
2023-03-24T00:38:57.801Z,99.90
2023-03-24T00:41:26.844Z,99.90
2023-03-24T00:43:56.679Z,99.90
2023-03-24T00:46:30.051Z,99.90
2023-03-24T00:49:03.693Z,99.90
2023-03-24T00:51:33.771Z,99.90
2023-03-24T00:54:01.811Z,99.90
2023-03-24T00:56:32.862Z,99.90
2023-03-24T00:59:02.229Z,99.90
2023-03-24T01:01:32.978Z,99.90
2023-03-24T01:04:00.504Z,99.90
2023-03-24T01:06:27.240Z,99.90
2023-03-24T01:08:54.373Z,99.90
2023-03-24T01:11:24.199Z,99.90
2023-03-24T01:13:54.222Z,99.90
2023-03-24T01:16:25.544Z,99.90
2023-03-24T01:18:52.879Z,99.90
2023-03-24T01:21:19.562Z,99.90
2023-03-24T01:23:46.278Z,99.90
2023-03-24T01:26:13.014Z,99.90
2023-03-24T01:28:41.096Z,99.90
2023-03-24T01:31:09.791Z,99.90
2023-03-24T01:33:38.969Z,99.90
2023-03-24T01:36:07.223Z,99.90
2023-03-24T01:38:34.826Z,99.90
2023-03-24T01:41:02.175Z,99.90
2023-03-24T01:43:31.493Z,99.90
2023-03-24T01:46:15.739Z,99.90
2023-03-24T01:48:48.633Z,99.90
2023-03-24T01:51:26.101Z,99.90
2023-03-24T01:54:20.193Z,99.90
2023-03-24T01:57:11.813Z,99.90
2023-03-24T01:59:44.431Z,99.90
2023-03-24T02:02:15.184Z,99.90
2023-03-24T02:04:54.070Z,99.90
2023-03-24T02:07:48.505Z,99.90
2023-03-24T02:10:17.665Z,99.90
2023-03-24T02:12:45.093Z,99.90
2023-03-24T02:15:14.439Z,99.90
2023-03-24T02:18:06.003Z,99.90
2023-03-24T02:20:55.279Z,99.90
2023-03-24T02:23:55.609Z,99.90
2023-03-24T02:26:40.091Z,99.90
2023-03-24T02:29:32.243Z,99.90
2023-03-24T02:32:17.929Z,99.90
2023-03-24T02:35:07.189Z,99.90
2023-03-24T02:38:13.788Z,99.90
2023-03-24T02:40:46.297Z,99.90
2023-03-24T02:43:29.032Z,99.90
2023-03-24T02:46:17.109Z,99.90
2023-03-24T02:49:10.717Z,99.90
2023-03-24T02:51:55.456Z,99.90
2023-03-24T02:54:31.510Z,99.90
2023-03-24T02:57:07.492Z,99.90
2023-03-24T03:00:19.969Z,99.90
2023-03-24T03:03:20.028Z,99.90
2023-03-24T03:06:00.953Z,99.90
2023-03-24T03:08:30.384Z,99.90
2023-03-24T03:10:59.122Z,99.90
2023-03-24T03:13:34.240Z,99.90
2023-03-24T03:16:09.247Z,99.90
2023-03-24T03:18:50.122Z,99.90
2023-03-24T03:21:22.430Z,99.90
2023-03-24T03:23:56.990Z,99.90
2023-03-24T03:26:28.479Z,99.90
2023-03-24T03:29:01.714Z,99.90
2023-03-24T03:31:49.542Z,99.90
2023-03-24T03:34:28.429Z,99.90
2023-03-24T03:37:22.678Z,99.90
2023-03-24T03:39:57.938Z,99.90
2023-03-24T03:42:25.094Z,99.90
2023-03-24T03:44:52.057Z,99.90
2023-03-24T03:47:21.182Z,99.90
2023-03-24T03:49:48.912Z,99.90
2023-03-24T03:52:16.305Z,99.90
2023-03-24T03:54:44.110Z,99.90
2023-03-24T03:57:12.432Z,99.90
2023-03-24T03:59:56.567Z,99.90
2023-03-24T04:02:54.039Z,99.90
2023-03-24T04:05:42.733Z,99.90
2023-03-24T04:08:25.705Z,99.90
2023-03-24T04:11:12.862Z,99.90
2023-03-24T04:14:21.301Z,99.90
2023-03-24T04:17:24.277Z,99.90
2023-03-24T04:20:10.629Z,99.90
2023-03-24T04:22:44.012Z,99.90
2023-03-24T04:25:37.784Z,99.90
2023-03-24T04:28:27.234Z,99.90
2023-03-24T04:31:10.423Z,99.90
2023-03-24T04:34:03.340Z,99.90
2023-03-24T04:36:42.784Z,99.90
2023-03-24T04:39:30.860Z,99.90
2023-03-24T04:42:04.487Z,99.90
2023-03-24T04:44:33.209Z,99.90
2023-03-24T04:47:26.769Z,99.90
2023-03-24T04:50:11.494Z,99.90
2023-03-24T04:52:40.615Z,99.90
2023-03-24T04:55:33.881Z,99.90
2023-03-24T04:58:01.679Z,99.90
2023-03-24T05:00:28.656Z,99.90
2023-03-24T05:02:55.406Z,99.90
2023-03-24T05:05:25.959Z,99.90
2023-03-24T05:07:53.411Z,99.90
2023-03-24T05:10:22.028Z,99.90
2023-03-24T05:12:54.048Z,99.90
2023-03-24T05:15:26.928Z,99.90
2023-03-24T05:18:01.576Z,99.90
2023-03-24T05:20:28.360Z,99.90
2023-03-24T05:23:03.610Z,99.90
2023-03-24T05:25:30.601Z,99.90
2023-03-24T05:27:57.560Z,99.90
2023-03-24T05:30:26.197Z,99.90
2023-03-24T05:33:00.725Z,99.90
2023-03-24T05:35:31.020Z,99.90
2023-03-24T05:37:57.814Z,99.90
2023-03-24T05:40:24.471Z,99.90
2023-03-24T05:42:56.395Z,99.90
2023-03-24T05:45:26.252Z,99.90
2023-03-24T05:47:56.690Z,99.90
2023-03-24T05:50:36.119Z,99.90
2023-03-24T05:53:02.828Z,99.90
2023-03-24T05:55:53.644Z,99.90
2023-03-24T05:58:58.634Z,99.90
2023-03-24T06:01:43.187Z,99.90
2023-03-24T06:04:20.748Z,99.90
2023-03-24T06:06:47.799Z,99.90
2023-03-24T06:09:19.443Z,99.90
2023-03-24T06:11:46.236Z,99.90
2023-03-24T06:14:13.295Z,99.90
2023-03-24T06:16:52.430Z,99.90
2023-03-24T06:19:24.603Z,99.90
2023-03-24T06:22:10.314Z,99.90
2023-03-24T06:24:39.307Z,99.90
2023-03-24T06:27:09.887Z,99.90
2023-03-24T06:29:37.183Z,99.90
2023-03-24T06:32:05.522Z,99.90
2023-03-24T06:34:38.748Z,99.90
2023-03-24T06:37:16.072Z,99.90
2023-03-24T06:39:42.980Z,99.90
2023-03-24T06:42:11.485Z,99.90
2023-03-24T06:44:38.234Z,99.90
2023-03-24T06:47:05.597Z,99.90
2023-03-24T06:49:34.741Z,99.90
2023-03-24T06:52:01.829Z,99.90
2023-03-24T06:54:29.128Z,99.90
2023-03-24T06:56:57.121Z,99.90
2023-03-24T06:59:28.296Z,99.90
2023-03-24T07:01:55.451Z,99.90
2023-03-24T07:04:25.787Z,99.90
2023-03-24T07:07:10.820Z,99.90
2023-03-24T07:09:43.365Z,99.90
2023-03-24T07:12:13.999Z,99.90
2023-03-24T07:14:41.673Z,99.90
2023-03-24T07:17:08.430Z,99.90
2023-03-24T07:19:41.317Z,99.90
2023-03-24T07:22:36.833Z,99.90
2023-03-24T07:25:27.076Z,99.90
2023-03-24T07:28:01.483Z,99.90
2023-03-24T07:30:39.406Z,99.90
2023-03-24T07:33:10.780Z,99.90
2023-03-24T07:35:38.391Z,99.90
2023-03-24T07:38:05.850Z,99.90
2023-03-24T07:40:34.939Z,99.90
2023-03-24T07:43:05.733Z,99.90
2023-03-24T07:45:52.963Z,99.90
2023-03-24T07:48:19.817Z,99.90
2023-03-24T07:50:46.634Z,99.90
2023-03-24T07:53:33.728Z,99.90
2023-03-24T07:56:00.726Z,99.90
2023-03-24T07:58:27.927Z,99.90
2023-03-24T08:01:10.402Z,99.90
2023-03-24T08:03:42.264Z,99.90
2023-03-24T08:06:14.933Z,99.90
2023-03-24T08:08:50.099Z,99.90
2023-03-24T08:11:16.710Z,99.90
2023-03-24T08:13:43.361Z,99.90
2023-03-24T08:16:10.268Z,99.90
2023-03-24T08:18:38.735Z,99.90
2023-03-24T08:21:05.877Z,99.90
2023-03-24T08:23:32.635Z,99.90
2023-03-24T08:25:59.279Z,99.90
2023-03-24T08:28:26.045Z,99.90
2023-03-24T08:30:52.709Z,99.90
2023-03-24T08:33:19.623Z,99.90
2023-03-24T08:35:46.868Z,99.90
2023-03-24T08:38:16.311Z,99.90
2023-03-24T08:40:44.972Z,99.90
2023-03-24T08:43:15.323Z,99.90
2023-03-24T08:45:42.148Z,99.90
2023-03-24T08:48:09.908Z,99.90
2023-03-24T08:50:40.488Z,99.90
2023-03-24T08:53:07.958Z,99.90
2023-03-24T08:55:37.195Z,99.90
2023-03-24T08:58:03.821Z,99.90
2023-03-24T09:00:30.507Z,99.90
2023-03-24T09:02:58.359Z,99.90
2023-03-24T09:05:40.803Z,99.90
2023-03-24T09:08:08.212Z,99.90
2023-03-24T09:10:35.570Z,99.90
2023-03-24T09:13:02.278Z,99.90
2023-03-24T09:15:29.005Z,99.90
2023-03-24T09:17:55.646Z,99.90
2023-03-24T09:20:22.447Z,99.90
2023-03-24T09:22:49.231Z,99.90
2023-03-24T09:25:20.066Z,99.90
2023-03-24T09:27:47.342Z,99.90
2023-03-24T09:30:15.953Z,99.90
2023-03-24T09:32:42.793Z,99.90
2023-03-24T09:35:10.019Z,99.90
2023-03-24T09:37:38.617Z,99.90
2023-03-24T09:40:07.731Z,99.90
2023-03-24T09:42:38.651Z,99.90
2023-03-24T09:45:13.087Z,99.90
2023-03-24T09:47:44.052Z,99.90
2023-03-24T09:50:40.275Z,99.90
2023-03-24T09:53:37.701Z,99.90
2023-03-24T09:56:12.438Z,99.90
2023-03-24T09:58:41.570Z,99.90
2023-03-24T10:01:16.440Z,99.90
2023-03-24T10:03:44.966Z,99.90
2023-03-24T10:06:21.775Z,99.90
2023-03-24T10:08:58.336Z,99.90
2023-03-24T10:11:42.260Z,99.90
2023-03-24T10:14:34.048Z,99.90
2023-03-24T10:17:12.122Z,99.90
2023-03-24T10:20:00.880Z,99.90
2023-03-24T10:22:39.614Z,99.90
2023-03-24T10:25:21.450Z,99.90
2023-03-24T10:27:59.827Z,99.90
2023-03-24T10:30:34.156Z,99.90
2023-03-24T10:33:00.869Z,99.90
2023-03-24T10:35:36.498Z,99.90
2023-03-24T10:38:13.447Z,99.90
2023-03-24T10:40:41.678Z,99.90
2023-03-24T10:43:09.628Z,99.90
2023-03-24T10:45:39.717Z,99.90
2023-03-24T10:48:09.186Z,99.90
2023-03-24T10:50:40.592Z,99.90
2023-03-24T10:53:19.669Z,99.90
2023-03-24T10:55:47.804Z,99.90
2023-03-24T10:58:35.179Z,99.90
2023-03-24T11:01:03.123Z,99.90
2023-03-24T11:03:34.389Z,99.90
2023-03-24T11:06:02.943Z,99.90
2023-03-24T11:08:38.745Z,99.90
2023-03-24T11:11:15.626Z,99.90
2023-03-24T11:13:53.294Z,99.90
2023-03-24T11:16:37.272Z,99.90
2023-03-24T11:19:06.980Z,99.90
2023-03-24T11:21:36.531Z,99.90
2023-03-24T11:24:10.315Z,99.90
2023-03-24T11:26:38.846Z,99.90
2023-03-24T11:29:09.816Z,99.90
2023-03-24T11:31:39.269Z,99.90
2023-03-24T11:34:24.111Z,99.90
2023-03-24T11:36:57.607Z,99.90
2023-03-24T11:39:25.158Z,99.90
2023-03-24T11:42:01.946Z,99.90
2023-03-24T11:44:52.039Z,99.90
2023-03-24T11:47:21.631Z,99.90
2023-03-24T11:49:53.011Z,99.90
2023-03-24T11:52:26.739Z,99.90
2023-03-24T11:54:53.698Z,99.90
2023-03-24T11:57:41.049Z,99.90
2023-03-24T12:00:35.855Z,99.90
2023-03-24T12:03:11.544Z,99.90
2023-03-24T12:05:51.750Z,99.90
2023-03-24T12:08:53.229Z,99.90
2023-03-24T12:12:07.995Z,99.90
2023-03-24T12:14:50.576Z,99.90
2023-03-24T12:17:28.608Z,99.90
2023-03-24T12:20:08.771Z,99.90
2023-03-24T12:22:48.853Z,99.90
2023-03-24T12:25:24.439Z,99.90
2023-03-24T12:28:10.520Z,99.90
2023-03-24T12:31:04.142Z,99.90
2023-03-24T12:33:31.502Z,99.90
2023-03-24T12:36:32.148Z,99.90
2023-03-24T12:39:08.215Z,99.90
2023-03-24T12:42:03.800Z,99.90
2023-03-24T12:45:05.220Z,99.90
2023-03-24T12:47:40.717Z,99.90
2023-03-24T12:50:28.970Z,99.90
2023-03-24T12:53:23.210Z,99.90
2023-03-24T12:56:03.497Z,99.90
2023-03-24T12:58:44.933Z,99.90
2023-03-24T13:01:25.378Z,99.90
2023-03-24T13:04:15.274Z,99.90
2023-03-24T13:06:56.470Z,99.90
2023-03-24T13:09:55.750Z,99.90
2023-03-24T13:12:35.802Z,99.90
2023-03-24T13:15:26.176Z,99.90
2023-03-24T13:18:20.899Z,99.90
2023-03-24T13:21:13.620Z,99.90
2023-03-24T13:24:14.359Z,99.90
2023-03-24T13:27:04.818Z,99.90
2023-03-24T13:29:50.076Z,99.30
2023-03-24T13:32:31.576Z,98.40
2023-03-24T13:35:14.185Z,99.90
2023-03-24T13:37:48.585Z,99.90
2023-03-24T13:40:30.278Z,99.90
2023-03-24T13:42:59.085Z,99.90
2023-03-24T13:45:31.920Z,99.90
2023-03-24T13:48:10.405Z,99.80
2023-03-24T13:51:17.363Z,99.90
2023-03-24T13:54:23.786Z,99.90
2023-03-24T13:57:03.202Z,99.90
2023-03-24T13:59:32.172Z,99.90
2023-03-24T14:02:41.839Z,99.90
2023-03-24T14:05:08.692Z,99.90
2023-03-24T14:07:41.390Z,99.90
2023-03-24T14:10:13.899Z,99.90
2023-03-24T14:13:03.580Z,99.90
2023-03-24T14:15:40.635Z,99.90
2023-03-24T14:18:26.249Z,97.70
2023-03-24T14:20:56.137Z,99.90
2023-03-24T14:23:44.029Z,99.90
2023-03-24T14:26:19.908Z,99.90
2023-03-24T14:28:48.379Z,99.90
2023-03-24T14:31:18.342Z,99.90
2023-03-24T14:34:05.706Z,99.90
2023-03-24T14:36:44.036Z,99.90
2023-03-24T14:39:34.059Z,99.90
2023-03-24T14:42:00.963Z,99.90
2023-03-24T14:44:46.881Z,99.90
2023-03-24T14:47:28.475Z,99.90
2023-03-24T14:49:58.120Z,99.90
2023-03-24T14:52:33.030Z,99.90
2023-03-24T14:55:10.715Z,99.90
2023-03-24T14:57:41.781Z,99.90
2023-03-24T15:00:31.030Z,99.20
2023-03-24T15:03:19.352Z,99.90
2023-03-24T15:05:46.099Z,99.90
2023-03-24T15:08:23.578Z,99.90
2023-03-24T15:11:00.428Z,99.90
2023-03-24T15:13:30.081Z,99.90
2023-03-24T15:15:57.143Z,99.90
2023-03-24T15:18:25.642Z,99.90
2023-03-24T15:20:53.074Z,99.90
2023-03-24T15:23:26.281Z,99.90
2023-03-24T15:25:55.401Z,99.90
2023-03-24T15:28:29.506Z,99.90
2023-03-24T15:30:59.121Z,99.90
2023-03-24T15:33:26.105Z,99.90
2023-03-24T15:35:57.672Z,99.90
2023-03-24T15:38:32.641Z,99.90
2023-03-24T15:41:03.561Z,99.90
2023-03-24T15:43:30.925Z,99.90
2023-03-24T15:46:11.891Z,99.10
2023-03-24T15:48:39.322Z,97.90
2023-03-24T15:51:11.540Z,96.10
2023-03-24T15:53:57.947Z,95.70
2023-03-24T15:56:28.082Z,99.10
2023-03-24T15:59:03.928Z,96.50
2023-03-24T16:01:31.425Z,97.00
2023-03-24T16:04:01.113Z,99.70
2023-03-24T16:06:30.929Z,98.00
2023-03-24T16:09:03.993Z,99.40
2023-03-24T16:11:31.004Z,99.10
2023-03-24T16:13:58.879Z,99.90
2023-03-24T16:16:30.631Z,95.80
2023-03-24T16:18:59.210Z,95.90
2023-03-24T16:21:28.637Z,96.20
2023-03-24T16:23:57.401Z,96.00
2023-03-24T16:26:28.912Z,96.90
2023-03-24T16:29:02.184Z,98.20
2023-03-24T16:31:31.603Z,97.90
2023-03-24T16:33:59.208Z,97.30
2023-03-24T16:36:26.676Z,97.00
2023-03-24T16:38:55.339Z,97.10
2023-03-24T16:41:22.712Z,96.70
2023-03-24T16:43:49.451Z,97.80
2023-03-24T16:46:20.318Z,97.20
2023-03-24T16:48:47.043Z,97.30
2023-03-24T16:51:15.734Z,97.30
2023-03-24T16:53:43.889Z,97.40
2023-03-24T16:56:14.351Z,98.30
2023-03-24T16:58:41.277Z,97.70
2023-03-24T17:01:35.801Z,97.30
2023-03-24T17:04:09.533Z,97.70
2023-03-24T17:06:38.859Z,98.00
2023-03-24T17:09:06.721Z,97.40
2023-03-24T17:11:36.171Z,98.40
2023-03-24T17:14:08.372Z,97.90
2023-03-24T17:16:37.009Z,98.00
2023-03-24T17:19:07.159Z,97.60
2023-03-24T17:22:01.734Z,98.00
2023-03-24T17:24:30.145Z,98.10
2023-03-24T17:26:56.783Z,98.50
2023-03-24T17:29:23.476Z,99.30
2023-03-24T17:31:50.376Z,99.00
2023-03-24T17:34:21.502Z,99.10
2023-03-24T17:36:50.547Z,99.60
2023-03-24T17:39:19.052Z,99.60
2023-03-24T17:41:45.727Z,99.90
2023-03-24T17:44:12.519Z,99.90
2023-03-24T17:46:39.231Z,99.90
2023-03-24T17:49:06.280Z,99.90
2023-03-24T17:51:33.152Z,99.90
2023-03-24T17:53:59.854Z,99.90
2023-03-24T17:56:26.714Z,99.90
2023-03-24T17:58:54.866Z,99.90
2023-03-24T18:01:22.083Z,99.90
2023-03-24T18:03:49.611Z,99.90
2023-03-24T18:06:17.115Z,99.90
2023-03-24T18:08:44.009Z,99.90
2023-03-24T18:11:13.060Z,99.90
2023-03-24T18:13:39.773Z,99.90
2023-03-24T18:16:19.834Z,99.90
2023-03-24T18:18:48.630Z,99.90
2023-03-24T18:21:15.371Z,99.90
2023-03-24T18:23:42.274Z,99.90
2023-03-24T18:26:09.247Z,99.90
2023-03-24T18:28:37.371Z,99.90
2023-03-24T18:31:09.313Z,99.90
2023-03-24T18:33:35.976Z,99.90
2023-03-24T18:36:03.987Z,99.90
2023-03-24T18:38:30.857Z,99.90
2023-03-24T18:41:02.339Z,99.90
2023-03-24T18:43:34.472Z,99.90
2023-03-24T18:46:01.228Z,99.90
2023-03-24T18:48:27.853Z,99.90
2023-03-24T18:50:54.474Z,99.90
2023-03-24T18:53:22.115Z,99.90
2023-03-24T18:55:51.057Z,99.90
2023-03-24T18:58:18.736Z,99.90
2023-03-24T19:00:53.919Z,99.90
2023-03-24T19:03:24.546Z,99.90
2023-03-24T19:05:54.385Z,99.90
2023-03-24T19:08:21.966Z,99.90
2023-03-24T19:10:48.763Z,99.90
2023-03-24T19:13:16.840Z,99.90
2023-03-24T19:15:48.239Z,99.90
2023-03-24T19:18:15.456Z,99.90
2023-03-24T19:20:42.272Z,99.90
2023-03-24T19:23:09.276Z,99.90
2023-03-24T19:25:36.184Z,99.90
2023-03-24T19:28:02.851Z,99.90
2023-03-24T19:30:29.537Z,99.90
2023-03-24T19:32:56.791Z,99.90
2023-03-24T19:35:23.689Z,99.90
2023-03-24T19:37:50.485Z,99.90
2023-03-24T19:40:17.479Z,99.90
2023-03-24T19:42:44.991Z,99.90
2023-03-24T19:45:14.411Z,99.90
2023-03-24T19:47:43.201Z,99.90
2023-03-24T19:50:10.220Z,99.90
2023-03-24T19:52:36.870Z,99.90
2023-03-24T19:55:06.383Z,99.90
2023-03-24T19:57:33.367Z,99.90
2023-03-24T20:00:00.608Z,99.90
2023-03-24T20:02:28.534Z,99.90
2023-03-24T20:04:55.448Z,99.90
2023-03-24T20:07:23.187Z,99.90
2023-03-24T20:09:50.283Z,99.90
2023-03-24T20:12:17.067Z,99.90
2023-03-24T20:14:43.838Z,99.90
2023-03-24T20:17:17.917Z,99.90
2023-03-24T20:19:45.661Z,99.90
2023-03-24T20:22:12.529Z,99.90
2023-03-24T20:24:39.196Z,99.90
2023-03-24T20:27:07.194Z,99.90
2023-03-24T20:29:34.305Z,99.90
2023-03-24T20:32:00.977Z,99.90
2023-03-24T20:34:27.923Z,99.90
2023-03-24T20:36:54.562Z,99.90
2023-03-24T20:39:21.247Z,99.90
2023-03-24T20:41:47.893Z,99.90
2023-03-24T20:44:14.477Z,99.90
2023-03-24T20:46:41.073Z,99.90
2023-03-24T20:49:08.527Z,99.90
2023-03-24T20:51:35.112Z,99.90
2023-03-24T20:54:01.862Z,99.90
2023-03-24T20:56:28.490Z,99.90
2023-03-24T20:58:55.144Z,99.90
2023-03-24T21:01:22.629Z,99.90
2023-03-24T21:03:53.305Z,99.90
2023-03-24T21:06:20.684Z,99.90
2023-03-24T21:08:48.178Z,99.90
2023-03-24T21:11:14.819Z,99.90
2023-03-24T21:13:41.568Z,99.90
2023-03-24T21:16:09.649Z,99.90
2023-03-24T21:18:37.592Z,99.90
2023-03-24T21:21:05.699Z,99.90
2023-03-24T21:23:34.254Z,99.90
2023-03-24T21:26:01.946Z,99.90
2023-03-24T21:28:30.743Z,99.90
2023-03-24T21:30:58.616Z,99.90
2023-03-24T21:33:25.446Z,99.90
2023-03-24T21:35:55.350Z,99.90
2023-03-24T21:38:22.155Z,99.90
2023-03-24T21:40:57.354Z,99.90
2023-03-24T21:43:24.139Z,99.90
2023-03-24T21:45:54.425Z,99.90
2023-03-24T21:48:21.741Z,99.90
2023-03-24T21:50:53.097Z,99.90
2023-03-24T21:53:20.984Z,99.90
2023-03-24T21:55:56.442Z,99.90
2023-03-24T21:58:23.523Z,99.90
2023-03-24T22:00:50.920Z,99.90
2023-03-24T22:03:21.672Z,99.90
2023-03-24T22:05:48.767Z,99.90
2023-03-24T22:08:22.682Z,99.90
2023-03-24T22:10:49.506Z,99.90
2023-03-24T22:13:16.152Z,99.90
2023-03-24T22:15:42.765Z,99.90
2023-03-24T22:18:09.423Z,99.90
2023-03-24T22:20:37.759Z,99.90
2023-03-24T22:23:04.460Z,99.90
2023-03-24T22:25:32.001Z,99.90
2023-03-24T22:27:58.616Z,99.90
2023-03-24T22:30:25.236Z,99.90
2023-03-24T22:32:51.947Z,99.90
2023-03-24T22:35:18.693Z,99.90
2023-03-24T22:37:45.391Z,99.90
2023-03-24T22:40:12.072Z,99.90
2023-03-24T22:42:38.655Z,99.90
2023-03-24T22:45:06.097Z,99.90
2023-03-24T22:47:32.717Z,99.90
2023-03-24T22:49:59.383Z,99.90
2023-03-24T22:52:27.660Z,99.90
2023-03-24T22:54:54.683Z,99.90
2023-03-24T22:57:21.370Z,99.90
2023-03-24T22:59:47.977Z,99.90
2023-03-24T23:02:14.667Z,99.90
2023-03-24T23:04:41.895Z,99.90
2023-03-24T23:07:08.578Z,99.90
2023-03-24T23:09:36.477Z,99.90
2023-03-24T23:12:03.174Z,99.90
2023-03-24T23:14:29.960Z,99.90
2023-03-24T23:16:57.164Z,99.90
2023-03-24T23:19:23.770Z,99.90
2023-03-24T23:21:50.495Z,99.90
2023-03-24T23:24:17.280Z,99.90
2023-03-24T23:26:43.950Z,99.90
2023-03-24T23:29:10.593Z,99.90
2023-03-24T23:31:37.216Z,99.90
2023-03-24T23:34:07.284Z,99.90
2023-03-24T23:36:34.180Z,99.90
2023-03-24T23:39:01.075Z,99.90
2023-03-24T23:41:27.837Z,99.90
2023-03-24T23:43:55.075Z,99.90
2023-03-24T23:46:23.682Z,99.90
2023-03-24T23:48:50.771Z,99.90
2023-03-24T23:51:17.429Z,99.90
2023-03-24T23:53:44.342Z,99.90
2023-03-24T23:56:14.033Z,99.90
2023-03-24T23:58:42.595Z,99.90
